Time;durP1;ratioP1;P1;durP2;ratioP2;P2;SDS_P1;SDS_P2;PMS_P1;PMS_P2;Temp;Humidity;BMP_temperature;BMP_pressure;BME280_temperature;BME280_humidity;BME280_pressure;Samples;Min_cycle;Max_cycle;Signal;HPM_P1;HPM_P2
2022/06/08 00:01:14;;;;;;;11.50;8.70;;;9.40;99.90;;;;;;4830171;29;20033;-80
2022/06/08 00:03:51;;;;;;;14.27;9.70;;;9.50;99.90;;;;;;4838736;29;20041;-80
2022/06/08 00:06:20;;;;;;;15.00;11.23;;;9.50;99.90;;;;;;4836787;29;20131;-80
2022/06/08 00:08:46;;;;;;;17.75;11.45;;;9.50;99.90;;;;;;4845382;29;20752;-80
2022/06/08 00:11:15;;;;;;;16.67;11.10;;;9.50;99.90;;;;;;4831554;29;20473;-79
2022/06/08 00:13:44;;;;;;;17.30;12.00;;;9.60;99.90;;;;;;4827230;29;20093;-80
2022/06/08 00:16:11;;;;;;;17.52;11.15;;;9.60;99.90;;;;;;4827437;29;20045;-80
2022/06/08 00:18:40;;;;;;;18.58;12.55;;;9.70;99.90;;;;;;4834267;29;20517;-80
2022/06/08 00:21:09;;;;;;;16.88;12.38;;;9.70;99.90;;;;;;4838632;29;20045;-80
2022/06/08 00:23:38;;;;;;;19.23;12.32;;;9.80;99.90;;;;;;4829842;29;20049;-80
2022/06/08 00:26:07;;;;;;;20.77;13.05;;;9.80;99.90;;;;;;4832402;29;20088;-80
2022/06/08 00:28:33;;;;;;;26.23;13.27;;;9.90;99.90;;;;;;4809294;29;20125;-80
2022/06/08 00:31:02;;;;;;;19.83;13.48;;;10.00;99.90;;;;;;4827537;29;20045;-80
2022/06/08 00:33:28;;;;;;;20.92;13.48;;;10.10;99.90;;;;;;4819680;29;20045;-80
2022/06/08 00:35:54;;;;;;;20.75;13.32;;;10.10;99.90;;;;;;4827203;29;20049;-80
2022/06/08 00:38:19;;;;;;;18.40;12.63;;;10.10;99.90;;;;;;4842377;29;20074;-80
2022/06/08 00:40:51;;;;;;;19.88;12.32;;;10.10;99.90;;;;;;4828089;29;20042;-80
2022/06/08 00:43:20;;;;;;;14.40;10.60;;;10.20;99.90;;;;;;4852213;29;20041;-80
2022/06/08 00:45:46;;;;;;;13.75;10.77;;;10.20;99.90;;;;;;4834823;29;20564;-80
2022/06/08 00:48:16;;;;;;;19.75;11.45;;;10.30;99.90;;;;;;4841754;29;20050;-80
2022/06/08 00:50:57;;;;;;;17.27;12.98;;;10.30;99.90;;;;;;4826553;29;20048;-80
2022/06/08 00:53:31;;;;;;;20.42;12.45;;;10.40;99.90;;;;;;4832906;29;20038;-80
2022/06/08 00:56:01;;;;;;;18.02;12.27;;;10.40;99.90;;;;;;4806983;29;20046;-80
2022/06/08 00:58:30;;;;;;;16.40;12.95;;;10.40;99.90;;;;;;4849115;29;20157;-79
2022/06/08 01:00:58;;;;;;;18.63;12.50;;;10.50;99.90;;;;;;4834970;29;20038;-80
2022/06/08 01:03:27;;;;;;;19.02;13.25;;;10.50;99.90;;;;;;4834556;29;20074;-79
2022/06/08 01:06:05;;;;;;;19.48;12.30;;;10.50;99.90;;;;;;4812217;29;20069;-79
2022/06/08 01:08:42;;;;;;;17.75;12.30;;;10.60;99.90;;;;;;4827513;29;20049;-79
2022/06/08 01:11:15;;;;;;;19.95;14.70;;;10.60;99.90;;;;;;4831501;29;20041;-80
2022/06/08 01:13:42;;;;;;;19.55;13.27;;;10.60;99.90;;;;;;4831391;29;20073;-79
2022/06/08 01:16:12;;;;;;;20.88;13.90;;;10.70;99.90;;;;;;4831952;29;20049;-80
2022/06/08 01:18:42;;;;;;;18.88;13.68;;;10.70;99.90;;;;;;4826127;29;20046;-80
2022/06/08 01:21:25;;;;;;;20.08;13.27;;;10.70;99.90;;;;;;4827038;29;20045;-80
2022/06/08 01:24:00;;;;;;;20.77;14.02;;;10.80;99.90;;;;;;4856397;29;20042;-80
2022/06/08 01:26:30;;;;;;;20.27;13.70;;;10.80;99.90;;;;;;4842081;29;20496;-80
2022/06/08 01:29:18;;;;;;;22.23;13.23;;;10.80;99.90;;;;;;4827796;29;20120;-80
2022/06/08 01:32:24;;;;;;;19.58;13.82;;;10.90;99.90;;;;;;4829844;29;20041;-80
2022/06/08 01:35:12;;;;;;;21.02;14.85;;;10.90;99.90;;;;;;4826784;29;20046;-79
2022/06/08 01:38:03;;;;;;;21.10;14.73;;;10.90;99.90;;;;;;4824807;29;20498;-80
2022/06/08 01:40:35;;;;;;;23.27;14.82;;;11.00;99.90;;;;;;4856059;29;20537;-80
2022/06/08 01:43:33;;;;;;;20.00;13.65;;;11.00;99.90;;;;;;4833190;29;20560;-80
2022/06/08 01:46:26;;;;;;;20.50;13.75;;;11.00;99.90;;;;;;4842296;29;20428;-79
2022/06/08 01:49:25;;;;;;;21.65;13.75;;;11.10;99.90;;;;;;4804393;29;20057;-80
2022/06/08 01:51:53;;;;;;;21.95;14.27;;;11.10;99.90;;;;;;4852468;29;20085;-80
2022/06/08 01:54:53;;;;;;;21.17;15.27;;;11.10;99.90;;;;;;4833883;29;20053;-79
2022/06/08 01:57:30;;;;;;;21.92;14.55;;;11.20;99.90;;;;;;4854281;29;20127;-80
2022/06/08 01:59:58;;;;;;;18.38;13.05;;;11.20;99.90;;;;;;4821888;29;20064;-80
2022/06/08 02:02:39;;;;;;;21.17;14.43;;;11.20;99.90;;;;;;4847871;29;20057;-80
2022/06/08 02:05:27;;;;;;;19.63;13.68;;;11.30;99.90;;;;;;4824605;29;20049;-80
2022/06/08 02:08:12;;;;;;;18.83;13.98;;;11.20;99.90;;;;;;4825254;29;20086;-80
2022/06/08 02:10:57;;;;;;;20.55;13.95;;;11.30;99.90;;;;;;4829752;29;20046;-80
2022/06/08 02:13:30;;;;;;;19.80;14.25;;;11.30;99.90;;;;;;4830237;29;20064;-80
2022/06/08 02:16:09;;;;;;;;;;;11.30;99.90;;;;;;4828441;29;20074;-80
2022/06/08 02:18:51;;;;;;;23.00;15.55;;;11.40;99.90;;;;;;4847418;29;19980;-80
2022/06/08 02:21:35;;;;;;;18.98;13.18;;;11.30;99.90;;;;;;4827069;29;20583;-79
2022/06/08 02:24:16;;;;;;;18.75;14.10;;;11.40;99.90;;;;;;4826695;29;20443;-79
2022/06/08 02:26:47;;;;;;;19.70;14.35;;;11.40;99.90;;;;;;4825792;29;20086;-80
2022/06/08 02:29:26;;;;;;;19.98;13.10;;;11.40;99.90;;;;;;4824138;29;20049;-80
2022/06/08 02:32:03;;;;;;;20.75;14.63;;;11.50;99.90;;;;;;4831680;29;20042;-80
2022/06/08 02:34:41;;;;;;;18.00;13.50;;;11.50;99.90;;;;;;4840049;29;20409;-80
2022/06/08 02:37:17;;;;;;;17.85;12.70;;;11.50;99.90;;;;;;4851739;29;20118;-80
2022/06/08 02:39:53;;;;;;;19.00;13.75;;;11.50;99.90;;;;;;4809314;29;20047;-80
2022/06/08 02:42:44;;;;;;;17.40;12.88;;;11.50;99.90;;;;;;4835660;29;20034;-80
2022/06/08 02:45:41;;;;;;;19.77;12.93;;;11.50;99.90;;;;;;4852464;29;20053;-79
2022/06/08 02:48:14;;;;;;;20.92;13.52;;;11.50;99.90;;;;;;4798841;29;20116;-80
2022/06/08 02:51:12;;;;;;;21.05;14.15;;;11.60;99.90;;;;;;4830214;29;20049;-80
2022/06/08 02:53:51;;;;;;;16.73;13.23;;;11.50;99.90;;;;;;4806532;29;20061;-80
2022/06/08 02:56:36;;;;;;;16.25;11.98;;;11.50;99.90;;;;;;4825071;29;20057;-79
2022/06/08 02:59:16;;;;;;;17.55;13.38;;;11.60;99.90;;;;;;4831488;29;20394;-80
2022/06/08 03:02:11;;;;;;;19.08;12.27;;;11.60;99.90;;;;;;4847416;29;20069;-80
2022/06/08 03:05:18;;;;;;;16.63;12.60;;;11.50;99.90;;;;;;4805306;29;20478;-80
2022/06/08 03:07:58;;;;;;;18.00;12.68;;;11.60;99.90;;;;;;4835970;29;20482;-79
2022/06/08 03:10:26;;;;;;;19.67;13.48;;;11.50;99.90;;;;;;4803170;29;20049;-79
2022/06/08 03:13:23;;;;;;;20.27;14.50;;;11.60;99.90;;;;;;4847291;29;20045;-79
2022/06/08 03:16:08;;;;;;;19.98;13.80;;;11.60;99.90;;;;;;4838987;29;20084;-80
2022/06/08 03:18:37;;;;;;;20.00;13.73;;;11.60;99.90;;;;;;4825261;29;20038;-79
2022/06/08 03:21:04;;;;;;;19.85;13.77;;;11.80;99.90;;;;;;4824636;29;20038;-80
2022/06/08 03:23:33;;;;;;;24.23;15.50;;;11.70;99.90;;;;;;4831681;29;20053;-80
2022/06/08 03:25:59;;;;;;;18.83;13.43;;;11.70;99.90;;;;;;4809715;29;20132;-80
2022/06/08 03:28:24;;;;;;;22.33;13.80;;;11.70;99.90;;;;;;4833025;29;20521;-79
2022/06/08 03:30:53;;;;;;;19.50;14.48;;;11.80;99.90;;;;;;4833328;29;20038;-80
2022/06/08 03:33:21;;;;;;;19.73;13.95;;;11.80;99.90;;;;;;4839459;29;20560;-79
2022/06/08 03:35:47;;;;;;;17.42;13.85;;;11.80;99.90;;;;;;4835291;29;20057;-79
2022/06/08 03:38:18;;;;;;;24.52;15.60;;;11.80;99.90;;;;;;4818429;29;20038;-80
2022/06/08 03:40:49;;;;;;;22.48;15.20;;;11.90;99.90;;;;;;4797091;29;21281;-80
2022/06/08 03:43:21;;;;;;;21.67;15.05;;;11.90;99.90;;;;;;4831880;29;20056;-80
2022/06/08 03:45:58;;;;;;;20.02;14.93;;;11.90;99.90;;;;;;4821223;29;20493;-80
2022/06/08 03:48:26;;;;;;;21.08;15.90;;;12.00;99.90;;;;;;4831949;29;20057;-80
2022/06/08 03:50:55;;;;;;;22.23;15.48;;;12.00;99.90;;;;;;4843230;29;20043;-80
2022/06/08 03:53:28;;;;;;;20.77;14.85;;;12.00;99.90;;;;;;4853743;29;20054;-80
2022/06/08 03:55:58;;;;;;;;;;;12.10;99.90;;;;;;4826422;29;20087;-80
2022/06/08 03:58:31;;;;;;;20.15;14.40;;;12.00;99.90;;;;;;4867359;29;20376;-80
2022/06/08 04:01:07;;;;;;;21.05;15.27;;;12.10;99.90;;;;;;4829934;29;20132;-80
2022/06/08 04:03:43;;;;;;;21.40;15.57;;;12.10;99.90;;;;;;4814119;29;20040;-80
2022/06/08 04:06:17;;;;;;;20.90;15.57;;;12.20;99.90;;;;;;4827144;29;20572;-80
2022/06/08 04:08:48;;;;;;;20.42;14.70;;;12.20;99.90;;;;;;4845785;29;20041;-81
2022/06/08 04:11:14;;;;;;;22.00;16.33;;;12.20;99.90;;;;;;4835941;29;20041;-80
2022/06/08 04:13:43;;;;;;;26.27;17.27;;;12.10;99.90;;;;;;4828476;29;20403;-80
2022/06/08 04:16:13;;;;;;;23.67;17.40;;;12.10;99.90;;;;;;4838388;29;20057;-80
2022/06/08 04:18:42;;;;;;;25.42;18.20;;;12.20;99.90;;;;;;4809596;29;20053;-80
2022/06/08 04:21:12;;;;;;;24.98;17.13;;;12.20;99.90;;;;;;4834143;29;20106;-80
2022/06/08 04:23:46;;;;;;;26.63;18.40;;;12.30;99.90;;;;;;4860279;29;20061;-80
2022/06/08 04:26:17;;;;;;;24.58;18.17;;;12.30;99.90;;;;;;4828472;29;20511;-80
2022/06/08 04:28:46;;;;;;;27.55;17.42;;;12.40;99.90;;;;;;4830570;29;20077;-80
2022/06/08 04:31:14;;;;;;;27.35;17.40;;;12.40;99.90;;;;;;4835544;29;20034;-80
2022/06/08 04:33:41;;;;;;;26.80;17.80;;;12.50;99.90;;;;;;4844521;29;20050;-81
2022/06/08 04:36:16;;;;;;;25.75;18.50;;;12.50;99.90;;;;;;4826804;29;20415;-80
2022/06/08 04:38:45;;;;;;;28.15;18.90;;;12.60;99.90;;;;;;4826446;29;20053;-80
2022/06/08 04:41:11;;;;;;;27.52;18.85;;;12.70;99.90;;;;;;4831932;29;20056;-80
2022/06/08 04:43:43;;;;;;;26.02;18.52;;;12.80;99.90;;;;;;4828759;29;20349;-80
2022/06/08 04:46:15;;;;;;;26.73;18.70;;;12.80;99.90;;;;;;4833897;29;20117;-80
2022/06/08 04:48:49;;;;;;;24.38;17.85;;;12.90;99.90;;;;;;4843018;29;20397;-80
2022/06/08 04:51:16;;;;;;;26.70;19.05;;;13.00;99.90;;;;;;4828609;29;20038;-80
2022/06/08 04:53:44;;;;;;;23.45;16.88;;;13.00;99.90;;;;;;4839346;29;20061;-80
2022/06/08 04:56:13;;;;;;;27.05;18.70;;;13.20;99.90;;;;;;4833511;29;20080;-80
2022/06/08 04:58:39;;;;;;;22.83;16.70;;;13.30;99.90;;;;;;4825853;29;20048;-80
2022/06/08 05:01:08;;;;;;;25.42;18.05;;;13.40;99.90;;;;;;4826653;29;20435;-80
2022/06/08 05:03:36;;;;;;;22.08;16.60;;;13.40;99.90;;;;;;4843652;29;20430;-80
2022/06/08 05:06:02;;;;;;;24.65;16.98;;;13.50;99.90;;;;;;4832796;29;20044;-80
2022/06/08 05:08:34;;;;;;;22.67;16.65;;;13.60;99.90;;;;;;4825617;29;20569;-80
2022/06/08 05:11:05;;;;;;;24.45;17.30;;;13.60;99.90;;;;;;4831992;29;20049;-80
2022/06/08 05:13:32;;;;;;;22.92;18.23;;;13.70;99.90;;;;;;4835584;29;20101;-80
2022/06/08 05:15:58;;;;;;;24.52;16.48;;;13.90;99.90;;;;;;4824662;29;21335;-80
2022/06/08 05:18:30;;;;;;;21.42;16.50;;;13.90;99.90;;;;;;4817761;29;20103;-81
2022/06/08 05:21:01;;;;;;;23.58;16.73;;;14.00;99.90;;;;;;4833905;29;20050;-80
2022/06/08 05:23:31;;;;;;;20.80;16.35;;;14.20;99.90;;;;;;4840113;29;20084;-80
2022/06/08 05:26:02;;;;;;;21.10;16.15;;;14.30;99.90;;;;;;4848742;29;20109;-80
2022/06/08 05:28:31;;;;;;;19.98;15.38;;;14.30;99.90;;;;;;4853690;29;20090;-80
2022/06/08 05:30:57;;;;;;;21.05;15.48;;;14.40;99.90;;;;;;4821077;29;20129;-79
2022/06/08 05:33:26;;;;;;;19.13;15.52;;;14.40;99.90;;;;;;4848244;29;20050;-80
2022/06/08 05:35:55;;;;;;;21.77;16.15;;;14.40;99.90;;;;;;4818516;29;20041;-80
2022/06/08 05:38:24;;;;;;;21.17;15.85;;;14.40;99.90;;;;;;4838837;29;20490;-82
2022/06/08 05:41:18;;;;;;;18.85;15.38;;;14.40;99.90;;;;;;4812301;29;20045;-83
2022/06/08 05:43:57;;;;;;;20.27;15.48;;;14.40;99.90;;;;;;4804759;29;20140;-81
2022/06/08 07:00:17;;;;;;;10.35;8.50;;;17.70;99.90;;;;;;4881183;29;20067;-82
2022/06/08 07:03:22;;;;;;;9.30;7.75;;;17.80;99.90;;;;;;4880134;29;20069;-83
2022/06/08 07:14:36;;;;;;;7.97;6.15;;;18.20;99.90;;;;;;4873063;29;20632;-83
2022/06/08 07:18:17;;;;;;;;;;;;;;;;;;;;;
2022/06/08 07:25:52;;;;;;;8.98;6.97;;;18.30;99.90;;;;;;4674727;30;20089;-82
2022/06/08 07:29:07;;;;;;;6.60;5.68;;;18.40;99.90;;;;;;4682769;29;20080;-82
2022/06/08 07:32:56;;;;;;;7.00;5.57;;;18.50;99.90;;;;;;4791671;29;20050;-82
2022/06/08 07:36:07;;;;;;;9.07;5.80;;;18.70;99.90;;;;;;4770325;30;20048;-83
2022/06/08 07:38:40;;;;;;;8.48;5.65;;;18.90;99.90;;;;;;4748968;29;20039;-82
2022/06/08 07:41:12;;;;;;;8.32;5.43;;;19.00;99.90;;;;;;4808293;29;20129;-80
2022/06/08 07:44:11;;;;;;;6.82;5.75;;;19.10;99.90;;;;;;4793022;29;20199;-82
2022/06/08 07:47:03;;;;;;;8.32;6.53;;;19.40;99.90;;;;;;4807639;29;20394;-81
2022/06/08 07:49:49;;;;;;;7.85;6.60;;;19.60;99.90;;;;;;4857602;29;20045;-81
2022/06/08 07:56:03;;;;;;;7.55;5.72;;;20.30;99.90;;;;;;4838970;29;20045;-81
2022/06/08 08:12:18;;;;;;;6.53;5.85;;;20.60;99.90;;;;;;4898285;23;20076;-78
2022/06/08 08:14:45;;;;;;;6.20;5.38;;;20.90;99.90;;;;;;4846622;29;20081;-78
2022/06/08 08:17:16;;;;;;;7.82;6.20;;;21.50;99.90;;;;;;4853470;29;20041;-78
2022/06/08 08:19:53;;;;;;;6.88;5.40;;;21.90;99.90;;;;;;4827146;29;20074;-79
2022/06/08 08:22:41;;;;;;;5.63;4.97;;;21.80;99.90;;;;;;4850282;29;20077;-81
2022/06/08 08:25:16;;;;;;;6.13;5.40;;;21.70;99.90;;;;;;4828179;29;20478;-80
2022/06/08 08:35:47;;;;;;;4.65;3.78;;;22.20;99.90;;;;;;4839979;29;20065;-83
2022/06/08 08:38:58;;;;;;;5.80;4.50;;;22.60;99.90;;;;;;4796543;29;20054;-82
2022/06/08 10:00:45;;;;;;;4.95;3.47;;;21.10;99.90;;;;;;4846371;29;20200;-82
2022/06/08 10:44:14;;;;;;;4.45;3.42;;;22.60;99.90;;;;;;5454863;23;20057;-81
2022/06/08 11:17:15;;;;;;;2.92;1.60;;;22.20;99.90;;;;;;4885334;29;20077;-81
2022/06/08 11:23:42;;;;;;;3.15;1.17;;;20.90;99.90;;;;;;4832442;29;20045;-80
2022/06/08 11:26:56;;;;;;;2.90;1.03;;;20.10;99.90;;;;;;4852932;29;20033;-80
2022/06/08 11:30:43;;;;;;;2.97;1.08;;;19.50;99.90;;;;;;4859119;29;20046;-80
2022/06/08 11:37:46;;;;;;;4.43;1.42;;;18.50;99.90;;;;;;4868525;29;20046;-81
2022/06/08 11:41:01;;;;;;;4.18;2.40;;;18.30;99.90;;;;;;4849966;29;20121;-81
2022/06/08 11:48:17;;;;;;;3.92;2.47;;;17.80;99.90;;;;;;4807995;29;20061;-81
2022/06/08 11:51:03;;;;;;;4.95;2.80;;;17.60;99.90;;;;;;4822750;29;20505;-78
2022/06/08 11:53:42;;;;;;;5.10;2.83;;;17.40;99.90;;;;;;4824312;29;20034;-79
2022/06/08 12:07:56;;;;;;;5.65;4.20;;;17.20;99.90;;;;;;4746436;30;20100;-79
2022/06/08 12:10:30;;;;;;;5.40;3.85;;;17.30;99.90;;;;;;4827710;29;20474;-79
2022/06/08 12:12:58;;;;;;;4.90;4.10;;;17.40;99.90;;;;;;4832544;29;20048;-79
2022/06/08 12:15:38;;;;;;;5.90;4.72;;;17.50;99.90;;;;;;4831215;29;20428;-79
2022/06/08 12:18:11;;;;;;;6.50;5.18;;;17.60;99.90;;;;;;4837796;29;20042;-79
2022/06/08 12:20:40;;;;;;;7.55;4.90;;;17.70;99.90;;;;;;4843850;29;20430;-79
2022/06/08 12:23:07;;;;;;;7.43;4.97;;;17.80;99.90;;;;;;4848312;29;20038;-79
2022/06/08 12:25:35;;;;;;;6.47;4.78;;;17.70;99.90;;;;;;4837136;29;20033;-78
2022/06/08 12:28:21;;;;;;;7.75;5.28;;;17.80;99.90;;;;;;4842273;29;20085;-79
2022/06/08 12:30:57;;;;;;;7.03;5.38;;;17.90;99.90;;;;;;4826322;29;20045;-78
2022/06/08 12:33:29;;;;;;;9.55;5.97;;;18.00;99.90;;;;;;4820552;29;20056;-78
2022/06/08 12:36:06;;;;;;;6.95;5.97;;;18.00;99.90;;;;;;4828148;29;20623;-79
2022/06/08 12:38:35;;;;;;;7.90;6.35;;;18.10;99.90;;;;;;4829813;29;20041;-79
2022/06/08 12:41:16;;;;;;;7.43;6.63;;;18.10;99.90;;;;;;4839652;29;20117;-78
2022/06/08 12:43:48;;;;;;;6.63;5.82;;;18.20;99.90;;;;;;4839398;29;20442;-78
2022/06/08 12:46:23;;;;;;;7.28;5.90;;;18.20;99.90;;;;;;4827743;29;20048;-79
2022/06/08 12:48:58;;;;;;;6.57;4.55;;;18.20;99.90;;;;;;4858694;29;20042;-79
2022/06/08 12:51:33;;;;;;;7.28;4.68;;;18.20;99.90;;;;;;4842730;29;20038;-79
2022/06/08 12:54:10;;;;;;;5.10;4.57;;;18.20;99.90;;;;;;4822879;29;20042;-79
2022/06/08 12:56:37;;;;;;;5.53;4.35;;;18.20;99.90;;;;;;4827890;29;20037;-78
2022/06/08 12:59:11;;;;;;;7.03;5.25;;;18.20;99.90;;;;;;4826489;29;20054;-79
2022/06/08 13:01:54;;;;;;;7.10;4.80;;;18.20;99.90;;;;;;4842684;29;20098;-79
2022/06/08 13:05:04;;;;;;;6.57;5.32;;;18.30;99.90;;;;;;4860622;29;20077;-79
2022/06/08 13:07:47;;;;;;;6.63;5.15;;;18.50;99.90;;;;;;4839419;29;20057;-79
2022/06/08 13:10:20;;;;;;;7.15;5.55;;;18.80;99.90;;;;;;4846675;29;20095;-79
2022/06/08 14:40:47;;;;;;;3.45;1.50;;;18.80;99.90;;;;;;4859781;29;20148;-78
2022/06/08 14:43:14;;;;;;;2.10;1.30;;;18.70;99.90;;;;;;4832061;29;20097;-79
2022/06/08 14:45:54;;;;;;;3.50;1.27;;;18.60;99.90;;;;;;4840579;29;20445;-78
2022/06/08 14:48:38;;;;;;;2.67;1.50;;;18.60;99.90;;;;;;4836410;29;20437;-80
2022/06/08 14:51:23;;;;;;;2.47;1.50;;;18.60;99.90;;;;;;4817304;29;20086;-77
2022/06/08 14:53:52;;;;;;;2.78;1.52;;;18.60;99.90;;;;;;4835316;29;20049;-78
2022/06/08 14:56:24;;;;;;;2.33;1.48;;;18.60;99.90;;;;;;4834759;29;20042;-78
2022/06/08 14:59:12;;;;;;;4.05;2.17;;;18.60;99.90;;;;;;4846020;29;20082;-80
2022/06/08 15:01:40;;;;;;;4.00;1.52;;;18.50;99.90;;;;;;4837097;29;20037;-78
2022/06/08 15:04:16;;;;;;;2.95;1.77;;;18.30;99.90;;;;;;4847327;29;20041;-79
2022/06/08 15:06:50;;;;;;;3.83;1.85;;;18.20;99.90;;;;;;4871490;29;20081;-79
2022/06/08 15:09:21;;;;;;;6.97;2.60;;;18.20;99.90;;;;;;4850343;29;20049;-79
2022/06/08 15:11:58;;;;;;;3.97;2.47;;;18.00;99.90;;;;;;4880833;29;20477;-79
2022/06/08 15:15:05;;;;;;;2.63;2.00;;;17.90;99.90;;;;;;4866843;29;20048;-80
2022/06/08 15:17:56;;;;;;;4.07;2.00;;;17.70;99.90;;;;;;4842444;29;20041;-79
2022/06/08 15:20:32;;;;;;;5.35;2.40;;;17.60;99.90;;;;;;4842775;29;20045;-79
2022/06/08 15:23:48;;;;;;;5.53;2.60;;;17.50;99.90;;;;;;4816008;29;20042;-80
2022/06/08 15:26:27;;;;;;;3.78;2.17;;;17.50;99.90;;;;;;4831676;29;20050;-78
2022/06/08 15:29:31;;;;;;;2.95;2.20;;;17.40;99.90;;;;;;4838389;29;20069;-79
2022/06/08 15:32:21;;;;;;;3.53;2.25;;;17.30;99.90;;;;;;4825688;29;20205;-79
2022/06/08 15:34:56;;;;;;;2.65;1.90;;;17.20;99.90;;;;;;4871545;29;20041;-81
2022/06/08 15:37:48;;;;;;;2.75;2.08;;;17.20;99.90;;;;;;4858139;29;20049;-81
2022/06/08 15:44:00;;;;;;;2.58;1.83;;;17.00;99.90;;;;;;4808765;29;20155;-81
2022/06/08 15:46:32;;;;;;;3.20;2.10;;;16.90;99.90;;;;;;4828954;29;20045;-80
2022/06/08 15:49:34;;;;;;;4.53;2.22;;;16.80;99.90;;;;;;4849075;29;20157;-80
2022/06/08 15:52:18;;;;;;;2.97;2.15;;;16.80;99.90;;;;;;4823559;29;20517;-80
2022/06/08 15:55:04;;;;;;;2.63;2.35;;;16.80;99.90;;;;;;4819650;29;20084;-80
2022/06/08 15:57:42;;;;;;;3.25;2.50;;;16.70;99.90;;;;;;4830829;29;20049;-80
2022/06/08 16:00:29;;;;;;;4.05;2.28;;;16.60;99.90;;;;;;4868826;29;20128;-81
2022/06/08 16:03:09;;;;;;;6.18;2.63;;;16.70;99.90;;;;;;4845829;29;20060;-81
2022/06/08 16:06:02;;;;;;;3.38;2.60;;;16.70;99.90;;;;;;4831995;29;20045;-81
2022/06/08 16:09:02;;;;;;;3.50;2.20;;;16.60;99.90;;;;;;4823614;29;20535;-81
2022/06/08 16:11:53;;;;;;;4.00;2.70;;;16.60;99.90;;;;;;4848612;29;20091;-82
2022/06/08 16:14:45;;;;;;;4.35;2.60;;;16.50;99.90;;;;;;4854081;29;20199;-81
2022/06/08 16:17:24;;;;;;;4.03;2.40;;;16.50;99.90;;;;;;4834609;29;20049;-80
2022/06/08 16:19:51;;;;;;;5.50;2.95;;;16.30;99.90;;;;;;4830790;29;20041;-80
2022/06/08 16:23:14;;;;;;;4.05;2.90;;;16.20;99.90;;;;;;4828524;29;20086;-80
2022/06/08 16:25:42;;;;;;;5.60;3.40;;;16.00;99.90;;;;;;4839938;29;20049;-79
2022/06/08 16:28:56;;;;;;;4.93;3.00;;;15.90;99.90;;;;;;4834532;29;20041;-81
2022/06/08 16:49:07;;;;;;;2.78;2.10;;;15.50;99.90;;;;;;4930506;23;20067;-79
2022/06/08 16:51:40;;;;;;;1.90;1.60;;;15.40;99.90;;;;;;4846894;29;20109;-79
2022/06/08 16:54:18;;;;;;;2.58;1.30;;;15.40;99.90;;;;;;4857143;29;20044;-79
2022/06/08 16:59:49;;;;;;;2.28;1.70;;;15.40;99.90;;;;;;4864799;29;20072;-80
2022/06/08 17:02:21;;;;;;;2.35;1.65;;;15.40;99.90;;;;;;4869829;29;20037;-79
2022/06/08 17:04:59;;;;;;;1.73;1.45;;;15.30;99.90;;;;;;4857314;29;20043;-80
2022/06/08 17:07:29;;;;;;;2.00;1.83;;;15.30;99.90;;;;;;4852325;29;20048;-80
2022/06/08 17:10:00;;;;;;;2.03;1.83;;;15.40;99.90;;;;;;4872451;29;20036;-80
2022/06/08 17:12:41;;;;;;;2.33;1.85;;;15.40;99.90;;;;;;4861903;29;20052;-79
2022/06/08 17:15:13;;;;;;;2.53;2.30;;;15.30;99.90;;;;;;4871251;29;20409;-80
2022/06/08 17:21:07;;;;;;;2.95;2.30;;;15.40;99.90;;;;;;4882810;29;20518;-80
2022/06/08 17:23:40;;;;;;;2.55;2.10;;;15.30;99.90;;;;;;4853884;29;20500;-78
2022/06/08 17:26:08;;;;;;;2.65;2.22;;;15.40;99.90;;;;;;4879624;29;20053;-79
2022/06/08 17:28:34;;;;;;;2.65;2.25;;;15.30;99.90;;;;;;4864301;29;20060;-80
2022/06/08 17:31:08;;;;;;;3.50;2.50;;;15.30;99.90;;;;;;4852140;29;20135;-80
2022/06/08 17:33:58;;;;;;;5.20;2.45;;;15.30;99.90;;;;;;4871741;29;20048;-79
2022/06/08 17:36:32;;;;;;;5.03;2.53;;;15.30;99.90;;;;;;4842328;29;20045;-79
2022/06/08 17:39:05;;;;;;;3.92;2.70;;;15.30;99.90;;;;;;4844549;29;20126;-79
2022/06/08 17:41:40;;;;;;;2.85;2.22;;;15.20;99.90;;;;;;4871588;29;20096;-79
2022/06/08 17:44:15;;;;;;;2.47;2.20;;;15.30;99.90;;;;;;4845236;29;20100;-79
2022/06/08 17:46:44;;;;;;;4.53;2.75;;;15.20;99.90;;;;;;4871537;29;20496;-79
2022/06/08 17:49:12;;;;;;;4.03;2.47;;;15.20;99.90;;;;;;4874182;29;20055;-78
2022/06/08 17:51:41;;;;;;;5.22;2.65;;;15.20;99.90;;;;;;4847906;29;20045;-78
2022/06/08 17:54:11;;;;;;;3.67;2.53;;;15.30;99.90;;;;;;4853613;29;20051;-78
2022/06/08 17:56:38;;;;;;;3.13;2.35;;;15.30;99.90;;;;;;4861325;29;20032;-78
2022/06/08 17:59:04;;;;;;;3.88;2.78;;;15.40;99.90;;;;;;4849067;29;20115;-78
2022/06/08 18:01:38;;;;;;;2.72;2.40;;;15.30;99.90;;;;;;4849852;29;20125;-79
2022/06/08 18:04:11;;;;;;;3.80;1.90;;;15.30;99.90;;;;;;4855676;29;20040;-78
2022/06/08 18:06:42;;;;;;;2.83;2.03;;;15.30;99.90;;;;;;4852915;29;20093;-79
2022/06/08 18:09:32;;;;;;;4.63;1.77;;;15.30;99.90;;;;;;4848783;29;20448;-80
2022/06/08 18:12:14;;;;;;;2.33;2.03;;;15.30;99.90;;;;;;4866196;29;20045;-79
2022/06/08 18:14:49;;;;;;;3.10;1.75;;;15.20;99.90;;;;;;4852514;29;20045;-79
2022/06/08 18:17:29;;;;;;;2.15;1.63;;;15.20;99.90;;;;;;4867947;29;20038;-80
2022/06/08 18:20:28;;;;;;;3.95;1.80;;;15.20;99.90;;;;;;4839772;29;20093;-81
2022/06/08 18:23:23;;;;;;;2.63;1.50;;;15.20;99.90;;;;;;4869383;29;20052;-80
2022/06/08 18:25:52;;;;;;;1.30;1.20;;;15.20;99.90;;;;;;4852676;29;20036;-79
2022/06/08 18:28:27;;;;;;;3.05;1.10;;;15.20;99.90;;;;;;4849220;29;20052;-79
2022/06/08 18:31:04;;;;;;;;;;;15.10;99.90;;;;;;4865688;29;20507;-80
2022/06/08 18:34:51;;;;;;;1.35;1.25;;;15.10;99.90;;;;;;4878347;29;20039;-80
2022/06/08 18:37:35;;;;;;;2.28;1.70;;;15.10;99.90;;;;;;4856355;29;20166;-80
2022/06/08 18:40:28;;;;;;;3.35;1.80;;;15.10;99.90;;;;;;4872117;29;20040;-80
2022/06/08 18:43:44;;;;;;;4.43;1.42;;;15.00;99.90;;;;;;4854091;29;20036;-81
2022/06/08 18:50:53;;;;;;;;;;;;;;;;;;;;;
2022/06/08 19:01:36;;;;;;;;;;;;;;;;;;;;;
2022/06/08 19:05:10;;;;;;;3.55;1.20;;;15.00;99.90;;;;;;4819384;29;20059;-83
2022/06/08 19:20:52;;;;;;;4.72;1.60;;;14.60;99.90;;;;;;4809011;29;20516;-82
2022/06/08 19:24:08;;;;;;;5.40;2.00;;;14.60;99.90;;;;;;4798728;29;20058;-83
2022/06/08 19:26:44;;;;;;;3.88;1.75;;;14.50;99.90;;;;;;4795279;29;20076;-81
2022/06/08 19:29:21;;;;;;;3.00;1.40;;;14.50;99.90;;;;;;4810475;29;20065;-81
2022/06/08 19:31:51;;;;;;;3.40;1.40;;;14.50;99.90;;;;;;4848306;29;20080;-80
2022/06/08 19:34:35;;;;;;;5.75;1.73;;;14.50;99.90;;;;;;4857999;29;20534;-79
2022/06/08 19:37:05;;;;;;;3.90;2.00;;;14.40;99.90;;;;;;4833890;29;20539;-79
2022/06/08 19:39:31;;;;;;;5.47;2.00;;;14.40;99.90;;;;;;4855718;29;20102;-79
2022/06/08 19:42:05;;;;;;;4.88;1.90;;;14.40;99.90;;;;;;4863913;29;20037;-79
2022/06/08 19:44:38;;;;;;;6.40;2.13;;;14.40;99.90;;;;;;4867971;29;20461;-79
2022/06/08 19:47:16;;;;;;;6.18;2.92;;;14.40;99.90;;;;;;4875445;29;20064;-79
2022/06/08 19:50:03;;;;;;;9.20;3.78;;;14.40;99.90;;;;;;4878330;29;20084;-79
2022/06/08 19:56:09;;;;;;;13.77;3.60;;;14.40;99.90;;;;;;4803440;29;20344;-79
2022/06/08 19:58:47;;;;;;;13.27;4.00;;;14.50;99.90;;;;;;4844354;29;20045;-79
2022/06/08 20:01:28;;;;;;;12.75;3.25;;;14.40;99.90;;;;;;4857938;29;20066;-79
2022/06/08 20:04:04;;;;;;;8.27;2.90;;;14.50;99.90;;;;;;4845741;29;20044;-79
2022/06/08 20:06:59;;;;;;;13.07;3.40;;;14.40;99.90;;;;;;4889765;29;20072;-79
2022/06/08 20:09:50;;;;;;;12.90;4.20;;;14.40;99.90;;;;;;4861858;29;20034;-81
2022/06/08 20:12:19;;;;;;;14.20;4.53;;;14.40;99.90;;;;;;4841420;29;20412;-79
2022/06/08 20:14:58;;;;;;;13.23;4.60;;;14.40;99.90;;;;;;4838374;29;20080;-79
2022/06/08 20:17:25;;;;;;;11.15;4.38;;;14.40;99.90;;;;;;4861758;29;20149;-78
2022/06/08 20:19:55;;;;;;;18.25;4.97;;;14.40;99.90;;;;;;4866418;29;20041;-78
2022/06/08 20:22:23;;;;;;;12.38;4.95;;;14.30;99.90;;;;;;4849151;29;20405;-78
2022/06/08 20:24:55;;;;;;;15.32;4.55;;;14.30;99.90;;;;;;4868461;29;20052;-78
2022/06/08 20:27:26;;;;;;;16.92;5.00;;;14.30;99.90;;;;;;4853517;29;20044;-78
2022/06/08 20:29:58;;;;;;;15.80;5.35;;;14.30;99.90;;;;;;4843246;29;20488;-78
2022/06/08 20:32:25;;;;;;;30.92;5.82;;;14.30;99.90;;;;;;4854143;29;20120;-78
2022/06/08 20:34:56;;;;;;;17.67;5.32;;;14.30;99.90;;;;;;4865977;29;20161;-78
2022/06/08 20:37:25;;;;;;;18.73;5.60;;;14.30;99.90;;;;;;4858224;29;20505;-78
2022/06/08 20:39:57;;;;;;;18.17;7.10;;;14.30;99.90;;;;;;4872156;29;20043;-78
2022/06/08 20:42:26;;;;;;;19.63;5.63;;;14.30;99.90;;;;;;4859021;29;20036;-78
2022/06/08 20:44:53;;;;;;;18.55;7.47;;;14.30;99.90;;;;;;4851219;29;20033;-80
2022/06/08 20:47:21;;;;;;;22.23;7.05;;;14.30;99.90;;;;;;4884061;29;20069;-78
2022/06/08 20:49:56;;;;;;;23.08;7.95;;;14.30;99.90;;;;;;4841241;29;20072;-80
2022/06/08 20:52:25;;;;;;;24.30;8.20;;;14.30;99.90;;;;;;4859152;29;20045;-78